createdAt,value
2023-03-13T00:01:19.720Z,4.60
2023-03-13T00:03:48.116Z,4.77
2023-03-13T00:06:16.859Z,4.73
2023-03-13T00:08:46.430Z,4.77
2023-03-13T00:11:16.408Z,4.20
2023-03-13T00:13:45.015Z,4.30
2023-03-13T00:16:15.220Z,4.60
2023-03-13T00:18:48.122Z,4.27
2023-03-13T00:21:17.261Z,4.67
2023-03-13T00:23:47.507Z,4.70
2023-03-13T00:26:17.899Z,4.00
2023-03-13T00:28:46.378Z,4.50
2023-03-13T00:31:17.172Z,4.37
2023-03-13T00:33:47.277Z,4.33
2023-03-13T00:36:17.363Z,5.00
2023-03-13T00:38:47.573Z,4.73
2023-03-13T00:41:18.341Z,5.30
2023-03-13T00:43:48.449Z,4.40
2023-03-13T00:46:19.901Z,4.70
2023-03-13T00:48:48.880Z,4.60
2023-03-13T00:51:19.248Z,5.30
2023-03-13T00:53:49.010Z,4.80
2023-03-13T00:56:18.236Z,4.60
2023-03-13T00:58:48.341Z,5.43
2023-03-13T01:01:18.553Z,4.50
2023-03-13T01:03:49.300Z,5.10
2023-03-13T01:06:22.644Z,4.80
2023-03-13T01:08:52.616Z,4.80
2023-03-13T01:11:22.914Z,4.70
2023-03-13T01:13:51.627Z,4.87
2023-03-13T01:16:21.333Z,4.83
2023-03-13T01:18:51.602Z,5.40
2023-03-13T01:21:24.209Z,4.87
2023-03-13T01:23:54.874Z,4.90
2023-03-13T01:26:24.222Z,5.03
2023-03-13T01:28:53.407Z,5.20
2023-03-13T01:31:24.426Z,6.00
2023-03-13T01:33:55.129Z,5.43
2023-03-13T01:36:23.567Z,5.80
2023-03-13T01:38:54.628Z,5.43
2023-03-13T01:41:24.603Z,5.83
2023-03-13T01:43:53.225Z,5.83
2023-03-13T01:46:24.931Z,6.10
2023-03-13T01:48:56.424Z,6.03
2023-03-13T01:51:28.278Z,5.97
2023-03-13T01:54:04.968Z,6.60
2023-03-13T01:56:41.678Z,7.00
2023-03-13T01:59:14.897Z,7.40
2023-03-13T02:01:43.708Z,6.17
2023-03-13T02:04:12.788Z,6.97
2023-03-13T02:06:44.605Z,8.20
2023-03-13T02:09:18.142Z,7.20
2023-03-13T02:11:53.585Z,6.57
2023-03-13T02:14:25.217Z,6.23
2023-03-13T02:16:54.307Z,5.97
2023-03-13T02:19:29.429Z,5.70
2023-03-13T02:22:05.798Z,5.70
2023-03-13T02:24:42.672Z,6.50
2023-03-13T02:27:12.234Z,5.40
2023-03-13T02:29:40.420Z,5.90
2023-03-13T02:32:09.182Z,6.00
2023-03-13T02:34:41.124Z,5.67
2023-03-13T02:37:13.034Z,5.80
2023-03-13T02:39:47.063Z,6.80
2023-03-13T02:42:20.154Z,6.63
2023-03-13T02:44:48.954Z,5.87
2023-03-13T02:47:20.584Z,6.07
2023-03-13T02:49:49.027Z,7.03
2023-03-13T02:52:20.308Z,6.10
2023-03-13T02:54:51.757Z,7.67
2023-03-13T02:57:21.272Z,7.37
2023-03-13T02:59:49.352Z,6.80
2023-03-13T03:02:17.371Z,6.67
2023-03-13T03:04:45.481Z,7.00
2023-03-13T03:07:13.728Z,7.20
2023-03-13T03:09:41.901Z,7.03
2023-03-13T03:12:10.707Z,7.30
2023-03-13T03:14:40.348Z,7.37
2023-03-13T03:17:08.585Z,7.47
2023-03-13T03:19:36.652Z,7.47
2023-03-13T03:22:05.039Z,7.63
2023-03-13T03:24:33.038Z,7.50
2023-03-13T03:27:01.181Z,6.90
2023-03-13T03:29:29.388Z,13.83
2023-03-13T03:31:58.993Z,9.63
2023-03-13T03:34:27.242Z,11.10
2023-03-13T03:36:55.564Z,7.80
2023-03-13T03:39:23.723Z,12.73
2023-03-13T03:41:52.617Z,7.97
2023-03-13T03:44:20.769Z,7.87
2023-03-13T03:46:48.928Z,8.07
2023-03-13T03:49:18.445Z,9.73
2023-03-13T03:51:46.568Z,9.20
2023-03-13T03:54:14.712Z,8.43
2023-03-13T03:56:42.819Z,8.87
2023-03-13T03:59:10.924Z,8.57
2023-03-13T04:01:39.027Z,9.00
2023-03-13T04:04:07.174Z,8.00
2023-03-13T04:06:36.673Z,8.33
2023-03-13T04:09:06.099Z,7.93
2023-03-13T04:11:34.270Z,8.33
2023-03-13T04:14:02.306Z,8.77
2023-03-13T04:16:30.454Z,8.70
2023-03-13T04:18:58.680Z,8.30
2023-03-13T04:21:26.905Z,7.73
2023-03-13T04:23:56.431Z,8.17
2023-03-13T04:26:24.618Z,8.87
2023-03-13T04:28:52.685Z,8.40
2023-03-13T04:31:20.889Z,7.83
2023-03-13T04:33:49.132Z,9.23
2023-03-13T04:36:17.343Z,8.80
2023-03-13T04:38:45.486Z,8.70
2023-03-13T04:41:15.196Z,9.60
2023-03-13T04:43:43.391Z,8.50
2023-03-13T04:46:11.522Z,8.57
2023-03-13T04:48:39.801Z,8.50
2023-03-13T04:51:07.999Z,9.10
2023-03-13T04:53:36.195Z,8.63
2023-03-13T04:56:04.598Z,9.00
2023-03-13T04:58:34.120Z,9.23
2023-03-13T05:01:03.565Z,8.33
2023-03-13T05:03:31.797Z,8.90
2023-03-13T05:06:00.662Z,9.07
2023-03-13T05:08:29.463Z,9.13
2023-03-13T05:10:57.859Z,7.80
2023-03-13T05:13:26.173Z,7.60
2023-03-13T05:15:55.865Z,8.13
2023-03-13T05:18:24.523Z,7.77
2023-03-13T05:20:52.585Z,8.77
2023-03-13T05:23:21.824Z,8.10
2023-03-13T05:25:49.978Z,8.90
2023-03-13T05:28:18.176Z,8.27
2023-03-13T05:30:46.397Z,8.80
2023-03-13T05:33:16.227Z,8.97
2023-03-13T05:35:45.336Z,9.47
2023-03-13T05:38:15.084Z,8.77
2023-03-13T05:40:43.341Z,9.20
2023-03-13T05:43:12.634Z,9.40
2023-03-13T05:45:40.950Z,8.63
2023-03-13T05:48:09.502Z,9.13
2023-03-13T05:50:39.203Z,8.07
2023-03-13T05:53:07.529Z,9.10
2023-03-13T05:55:35.786Z,8.90
2023-03-13T05:58:03.962Z,9.07
2023-03-13T06:00:32.356Z,10.73
2023-03-13T06:03:00.677Z,8.77
2023-03-13T06:05:29.150Z,9.47
2023-03-13T06:07:58.903Z,9.87
2023-03-13T06:10:28.484Z,7.80
2023-03-13T06:12:58.891Z,8.50
2023-03-13T06:15:28.360Z,8.20
2023-03-13T06:17:56.538Z,8.10
2023-03-13T06:20:24.676Z,7.53
2023-03-13T06:22:52.954Z,8.40
2023-03-13T06:25:22.624Z,8.07
2023-03-13T06:27:50.758Z,8.63
2023-03-13T06:30:19.780Z,9.10
2023-03-13T06:32:48.052Z,7.93
2023-03-13T06:35:16.258Z,7.67
2023-03-13T06:37:44.620Z,7.93
2023-03-13T06:40:14.694Z,8.07
2023-03-13T06:42:44.234Z,8.20
2023-03-13T06:45:13.243Z,8.20
2023-03-13T06:47:41.490Z,8.20
2023-03-13T06:50:10.659Z,8.17
2023-03-13T06:52:43.879Z,8.97
2023-03-13T06:55:13.811Z,8.93
2023-03-13T06:57:43.453Z,8.53
2023-03-13T07:00:13.087Z,8.43
2023-03-13T07:02:41.292Z,8.53
2023-03-13T07:05:10.534Z,7.70
2023-03-13T07:07:38.789Z,8.43
2023-03-13T07:10:08.173Z,8.37
2023-03-13T07:12:36.622Z,8.90
2023-03-13T07:15:07.296Z,8.67
2023-03-13T07:17:35.607Z,9.33
2023-03-13T07:20:06.812Z,8.27
2023-03-13T07:22:35.114Z,8.53
2023-03-13T07:25:03.730Z,7.00
2023-03-13T07:27:31.912Z,7.60
2023-03-13T07:30:00.193Z,7.77
2023-03-13T07:32:33.024Z,7.00
2023-03-13T07:35:03.449Z,7.17
2023-03-13T07:37:31.695Z,8.13
2023-03-13T07:39:59.851Z,7.93
2023-03-13T07:42:28.232Z,7.67
2023-03-13T07:44:56.297Z,7.93
2023-03-13T07:47:24.450Z,7.73
2023-03-13T07:49:54.218Z,7.20
2023-03-13T07:52:23.209Z,6.97
2023-03-13T07:54:51.365Z,6.50
2023-03-13T07:57:19.541Z,6.43
2023-03-13T07:59:47.767Z,6.43
2023-03-13T08:02:17.064Z,6.13
2023-03-13T08:04:45.136Z,5.97
2023-03-13T08:07:14.778Z,5.93
2023-03-13T08:09:43.035Z,7.47
2023-03-13T08:12:11.174Z,6.13
2023-03-13T08:14:39.254Z,5.83
2023-03-13T08:17:07.836Z,5.13
2023-03-13T08:19:36.356Z,5.43
2023-03-13T08:22:04.844Z,4.60
2023-03-13T08:24:34.456Z,5.23
2023-03-13T08:27:02.654Z,5.47
2023-03-13T08:29:30.769Z,4.43
2023-03-13T08:31:58.872Z,4.03
2023-03-13T08:34:27.018Z,4.30
2023-03-13T08:36:55.209Z,5.17
2023-03-13T08:39:23.324Z,5.07
2023-03-13T08:41:53.221Z,5.13
2023-03-13T08:44:21.565Z,5.13
2023-03-13T08:46:50.370Z,5.30
2023-03-13T08:49:18.827Z,4.83
2023-03-13T08:51:48.579Z,5.40
2023-03-13T08:54:16.991Z,5.20
2023-03-13T08:56:45.370Z,4.60
2023-03-13T08:59:15.709Z,4.97
2023-03-13T09:01:44.614Z,4.70
2023-03-13T09:04:14.070Z,4.80
2023-03-13T09:06:42.261Z,4.20
2023-03-13T09:09:11.127Z,4.37
2023-03-13T09:11:40.515Z,3.77
2023-03-13T09:14:09.841Z,3.80
2023-03-13T09:16:39.705Z,3.90
2023-03-13T09:19:07.983Z,4.40
2023-03-13T09:21:37.768Z,4.47
2023-03-13T09:24:06.474Z,5.20
2023-03-13T09:26:34.480Z,5.57
2023-03-13T09:29:02.821Z,4.73
2023-03-13T09:31:32.609Z,4.30
2023-03-13T09:34:02.834Z,4.37
2023-03-13T09:36:31.602Z,4.33
2023-03-13T09:39:01.165Z,4.33
2023-03-13T09:41:36.211Z,4.43
2023-03-13T09:44:11.759Z,3.90
2023-03-13T09:46:45.906Z,4.43
2023-03-13T09:49:27.428Z,4.57
2023-03-13T09:52:04.012Z,4.37
2023-03-13T09:54:39.978Z,4.47
2023-03-13T09:57:17.723Z,4.20
2023-03-13T09:59:53.311Z,4.43
2023-03-13T10:02:31.144Z,4.17
2023-03-13T10:05:07.721Z,4.33
2023-03-13T10:07:37.191Z,4.77
2023-03-13T10:10:08.506Z,4.00
2023-03-13T10:12:42.983Z,3.60
2023-03-13T10:15:29.455Z,4.10
2023-03-13T10:17:59.899Z,3.97
2023-03-13T10:20:34.244Z,4.27
2023-03-13T10:23:08.212Z,3.90
2023-03-13T10:25:39.528Z,3.73
2023-03-13T10:28:11.985Z,4.30
2023-03-13T10:30:44.802Z,4.30
2023-03-13T10:33:35.837Z,3.83
2023-03-13T10:36:09.131Z,3.70
2023-03-13T10:38:49.513Z,3.70
2023-03-13T10:41:28.232Z,3.60
2023-03-13T10:44:00.209Z,3.60
2023-03-13T10:46:31.004Z,3.50
2023-03-13T10:49:02.912Z,3.30
2023-03-13T10:51:38.326Z,3.60
2023-03-13T10:54:16.307Z,3.57
2023-03-13T10:56:44.792Z,4.30
2023-03-13T10:59:25.317Z,4.27
2023-03-13T11:01:55.085Z,3.70
2023-03-13T11:04:32.369Z,3.60
2023-03-13T11:07:05.273Z,4.13
2023-03-13T11:09:33.904Z,3.30
2023-03-13T11:12:08.262Z,3.63
2023-03-13T11:14:37.197Z,3.57
2023-03-13T11:17:12.490Z,3.90
2023-03-13T11:19:59.426Z,3.57
2023-03-13T11:22:41.708Z,3.60
2023-03-13T11:25:21.742Z,3.90
2023-03-13T11:28:07.774Z,3.70
2023-03-13T11:30:53.698Z,4.00
2023-03-13T11:33:30.480Z,4.17
2023-03-13T11:36:03.372Z,5.17
2023-03-13T11:38:38.441Z,4.73
2023-03-13T11:41:32.039Z,4.33
2023-03-13T11:44:23.903Z,4.10
2023-03-13T11:47:01.581Z,3.80
2023-03-13T11:49:53.236Z,3.20
2023-03-13T11:52:29.592Z,2.80
2023-03-13T11:55:27.326Z,3.10
2023-03-13T11:58:10.683Z,2.60
2023-03-13T12:00:43.675Z,2.70
2023-03-13T12:03:18.504Z,3.27
2023-03-13T12:05:52.907Z,3.17
2023-03-13T12:08:26.904Z,3.50
2023-03-13T12:11:06.623Z,3.00
2023-03-13T12:13:41.343Z,3.50
2023-03-13T12:16:13.708Z,3.13
2023-03-13T12:18:44.145Z,3.40
2023-03-13T12:21:19.417Z,2.90
2023-03-13T12:23:54.329Z,3.23
2023-03-13T12:26:34.698Z,3.30
2023-03-13T12:29:13.148Z,3.30
2023-03-13T12:31:46.820Z,2.70
2023-03-13T12:34:23.259Z,2.93
2023-03-13T12:36:56.770Z,2.80
2023-03-13T12:39:33.122Z,3.13
2023-03-13T12:42:39.219Z,3.37
2023-03-13T12:45:09.890Z,3.27
2023-03-13T12:48:09.324Z,3.67
2023-03-13T12:50:49.883Z,5.10
2023-03-13T12:53:51.062Z,3.50
2023-03-13T12:56:39.298Z,2.70
2023-03-13T12:59:12.532Z,3.60
2023-03-13T13:01:44.434Z,3.30
2023-03-13T13:04:16.698Z,2.73
2023-03-13T13:07:02.595Z,3.20
2023-03-13T13:09:32.188Z,3.03
2023-03-13T13:12:04.345Z,2.70
2023-03-13T13:15:08.125Z,3.03
2023-03-13T13:18:02.942Z,2.70
2023-03-13T13:20:34.193Z,2.73
2023-03-13T13:23:25.429Z,2.67
2023-03-13T13:25:55.121Z,2.77
2023-03-13T13:28:34.660Z,2.90
2023-03-13T13:31:03.613Z,3.33
2023-03-13T13:33:42.487Z,3.27
2023-03-13T13:36:32.822Z,3.10
2023-03-13T13:39:01.065Z,2.70
2023-03-13T13:41:38.199Z,2.60
2023-03-13T13:44:25.793Z,3.50
2023-03-13T13:46:56.395Z,3.50
2023-03-13T13:49:34.613Z,2.90
2023-03-13T13:52:34.406Z,3.10
2023-03-13T13:55:03.366Z,3.10
2023-03-13T13:57:33.988Z,2.87
2023-03-13T14:00:19.828Z,3.50
2023-03-13T14:02:52.497Z,2.70
2023-03-13T14:05:24.341Z,3.40
2023-03-13T14:08:06.334Z,2.97
2023-03-13T14:10:39.612Z,3.30
2023-03-13T14:13:16.803Z,2.90
2023-03-13T14:15:46.973Z,3.93
2023-03-13T14:18:25.468Z,3.97
2023-03-13T14:20:59.147Z,3.00
2023-03-13T14:23:32.923Z,2.60
2023-03-13T14:26:11.055Z,2.77
2023-03-13T14:28:42.515Z,3.17
2023-03-13T14:31:12.250Z,3.73
2023-03-13T14:33:40.784Z,3.40
2023-03-13T14:36:12.306Z,2.97
2023-03-13T14:38:41.867Z,2.87
2023-03-13T14:41:25.511Z,3.20
2023-03-13T14:43:54.807Z,3.50
2023-03-13T14:46:30.690Z,5.87
2023-03-13T14:49:06.693Z,3.53
2023-03-13T14:51:41.177Z,3.87
2023-03-13T14:54:27.937Z,3.30
2023-03-13T14:57:16.273Z,3.20
2023-03-13T14:59:45.368Z,3.00
2023-03-13T15:02:25.673Z,2.90
2023-03-13T15:05:01.224Z,2.80
2023-03-13T15:07:38.799Z,4.00
2023-03-13T15:10:21.036Z,3.70
2023-03-13T15:12:49.763Z,8.50
2023-03-13T15:15:18.913Z,4.07
2023-03-13T15:17:48.093Z,3.30
2023-03-13T15:20:19.358Z,3.10
2023-03-13T15:22:49.417Z,3.40
2023-03-13T15:25:20.865Z,3.50
2023-03-13T15:27:50.095Z,7.07
2023-03-13T15:30:19.581Z,4.00
2023-03-13T15:32:48.203Z,4.10
2023-03-13T15:35:29.254Z,3.20
2023-03-13T15:38:01.197Z,3.40
2023-03-13T15:40:30.966Z,3.37
2023-03-13T15:42:59.620Z,3.30
2023-03-13T15:45:27.701Z,3.70
2023-03-13T15:47:55.935Z,3.13
2023-03-13T15:50:29.953Z,3.80
2023-03-13T15:53:00.822Z,4.47
2023-03-13T15:55:30.833Z,3.73
2023-03-13T15:57:58.923Z,4.80
2023-03-13T16:00:28.709Z,3.93
2023-03-13T16:02:56.838Z,4.33
2023-03-13T16:05:25.099Z,4.03
2023-03-13T16:07:53.348Z,4.37
2023-03-13T16:10:25.849Z,3.03
2023-03-13T16:12:54.558Z,3.93
2023-03-13T16:15:23.132Z,4.17
2023-03-13T16:17:51.329Z,4.80
2023-03-13T16:20:22.175Z,3.60
2023-03-13T16:22:53.342Z,5.77
2023-03-13T16:25:24.755Z,8.53
2023-03-13T16:27:55.045Z,4.70
2023-03-13T16:30:25.481Z,5.50
2023-03-13T16:32:53.949Z,4.50
2023-03-13T16:35:22.368Z,4.23
2023-03-13T16:37:52.188Z,4.33
2023-03-13T16:40:24.553Z,4.00
2023-03-13T16:42:52.825Z,4.80
2023-03-13T16:45:21.067Z,5.23
2023-03-13T16:47:49.726Z,6.57
2023-03-13T16:50:25.349Z,7.70
2023-03-13T16:52:54.741Z,7.73
2023-03-13T16:55:28.559Z,8.40
2023-03-13T16:57:57.339Z,9.23
2023-03-13T17:00:27.471Z,8.63
2023-03-13T17:02:56.722Z,8.13
2023-03-13T17:05:25.893Z,7.63
2023-03-13T17:07:54.658Z,8.60
2023-03-13T17:10:26.845Z,10.17
2023-03-13T17:12:55.057Z,11.33
2023-03-13T17:15:23.812Z,17.27
2023-03-13T17:17:52.969Z,9.00
2023-03-13T17:20:23.103Z,8.17
2023-03-13T17:22:52.367Z,6.93
2023-03-13T17:25:21.042Z,7.37
2023-03-13T17:27:51.338Z,7.97
2023-03-13T17:30:22.898Z,7.67
2023-03-13T17:32:52.531Z,7.53
2023-03-13T17:35:22.504Z,7.93
2023-03-13T17:37:51.388Z,6.17
2023-03-13T17:40:21.846Z,7.23
2023-03-13T17:42:51.961Z,8.37
2023-03-13T17:45:21.065Z,6.63
2023-03-13T17:47:50.504Z,6.87
2023-03-13T17:50:21.929Z,7.23
2023-03-13T17:52:50.592Z,6.50
2023-03-13T17:55:18.986Z,6.80
2023-03-13T17:57:48.601Z,7.73
2023-03-13T18:00:24.780Z,7.43
2023-03-13T18:02:53.160Z,7.87
2023-03-13T18:05:21.585Z,9.60
2023-03-13T18:07:51.007Z,8.50
2023-03-13T18:10:22.438Z,9.07
2023-03-13T18:12:52.004Z,9.37
2023-03-13T18:15:23.081Z,9.23
2023-03-13T18:17:52.086Z,9.40
2023-03-13T18:20:22.121Z,9.77
2023-03-13T18:22:50.422Z,10.87
2023-03-13T18:25:19.598Z,11.27
2023-03-13T18:27:48.863Z,10.80
2023-03-13T18:30:19.645Z,12.17
2023-03-13T18:32:49.280Z,12.57
2023-03-13T18:35:17.974Z,13.37
2023-03-13T18:37:48.112Z,14.90
2023-03-13T18:40:18.977Z,13.17
2023-03-13T18:42:47.830Z,13.20
2023-03-13T18:45:17.275Z,14.57
2023-03-13T18:47:45.633Z,13.00
2023-03-13T18:50:25.080Z,11.50
2023-03-13T18:52:55.513Z,11.57
2023-03-13T18:55:24.054Z,9.87
2023-03-13T18:57:52.241Z,9.23
2023-03-13T19:00:23.330Z,10.53
2023-03-13T19:02:51.984Z,11.13
2023-03-13T19:05:22.516Z,10.10
2023-03-13T19:07:51.360Z,9.70
2023-03-13T19:10:24.338Z,10.83
2023-03-13T19:12:53.595Z,10.43
2023-03-13T19:15:24.805Z,9.63
2023-03-13T19:17:54.032Z,9.43
2023-03-13T19:20:25.326Z,11.37
2023-03-13T19:22:55.213Z,9.07
2023-03-13T19:25:24.528Z,10.23
2023-03-13T19:27:54.162Z,10.83
2023-03-13T19:30:24.255Z,9.53
2023-03-13T19:32:53.081Z,10.37
2023-03-13T19:35:22.330Z,7.00
2023-03-13T19:37:52.514Z,7.70
2023-03-13T19:40:23.396Z,6.77
2023-03-13T19:42:51.660Z,7.20
2023-03-13T19:45:22.034Z,7.20
2023-03-13T19:47:50.440Z,5.87
2023-03-13T19:50:20.766Z,5.43
2023-03-13T19:52:49.373Z,6.07
2023-03-13T19:55:19.426Z,6.97
2023-03-13T19:57:47.935Z,5.53
2023-03-13T20:00:23.025Z,5.50
2023-03-13T20:02:52.445Z,5.40
2023-03-13T20:05:20.777Z,5.33
2023-03-13T20:07:49.087Z,5.30
2023-03-13T20:10:18.595Z,4.93
2023-03-13T20:12:46.716Z,5.00
2023-03-13T20:18:00.183Z,5.10
2023-03-13T20:20:28.181Z,5.33
2023-03-13T20:22:56.760Z,5.47
2023-03-13T20:25:27.937Z,5.87
2023-03-13T20:27:56.315Z,5.20
2023-03-13T20:30:24.572Z,4.83
2023-03-13T20:32:59.668Z,5.53
2023-03-13T20:35:29.412Z,5.43
2023-03-13T20:37:59.760Z,5.43
2023-03-13T20:40:29.715Z,5.13
2023-03-13T20:42:59.475Z,6.07
2023-03-13T20:45:28.494Z,5.80
2023-03-13T20:47:56.868Z,5.93
2023-03-13T20:50:25.297Z,6.50
2023-03-13T20:52:53.562Z,6.03
2023-03-13T20:55:21.681Z,6.17
2023-03-13T20:57:51.277Z,6.63
2023-03-13T21:00:20.430Z,6.60
2023-03-13T21:02:50.112Z,7.17
2023-03-13T21:05:18.726Z,7.23
2023-03-13T21:07:48.123Z,6.10
2023-03-13T21:10:19.235Z,5.17
2023-03-13T21:12:47.778Z,5.60
2023-03-13T21:15:17.536Z,4.97
2023-03-13T21:17:45.673Z,5.67
2023-03-13T21:20:14.308Z,5.70
2023-03-13T21:22:44.584Z,5.40
2023-03-13T21:25:13.848Z,6.20
2023-03-13T21:27:43.867Z,6.43
2023-03-13T21:30:14.517Z,5.27
2023-03-13T21:32:44.789Z,5.93
2023-03-13T21:35:14.336Z,6.57
2023-03-13T21:37:43.067Z,5.67
2023-03-13T21:40:12.988Z,5.83
2023-03-13T21:42:41.408Z,5.47
2023-03-13T21:45:11.083Z,5.83
2023-03-13T21:47:39.363Z,6.80
2023-03-13T21:50:11.347Z,5.17
2023-03-13T21:52:41.357Z,5.37
2023-03-13T21:55:12.999Z,5.60
2023-03-13T21:57:41.341Z,5.47
2023-03-13T22:00:14.140Z,6.10
2023-03-13T22:02:42.609Z,6.07
2023-03-13T22:05:12.645Z,6.20
2023-03-13T22:07:40.752Z,16.27
2023-03-13T22:10:09.727Z,6.83
2023-03-13T22:12:38.232Z,5.80
2023-03-13T22:15:07.639Z,4.80
2023-03-13T22:17:35.769Z,5.63
2023-03-13T22:20:05.259Z,5.80
2023-03-13T22:22:36.020Z,4.93
2023-03-13T22:25:04.502Z,4.97
2023-03-13T22:27:32.813Z,5.60
2023-03-13T22:30:01.147Z,4.60
2023-03-13T22:32:30.307Z,5.00
2023-03-13T22:34:58.482Z,4.97
2023-03-13T22:37:27.345Z,4.90
2023-03-13T22:39:57.492Z,5.43
2023-03-13T22:42:26.179Z,5.10
2023-03-13T22:44:55.667Z,5.50
2023-03-13T22:47:24.836Z,4.53
2023-03-13T22:49:53.688Z,5.67
2023-03-13T22:52:24.683Z,5.27
2023-03-13T22:54:52.827Z,5.70
2023-03-13T22:57:22.360Z,6.00
2023-03-13T22:59:50.485Z,5.60
2023-03-13T23:02:18.755Z,6.00
2023-03-13T23:04:46.872Z,5.90
2023-03-13T23:07:15.964Z,5.10
2023-03-13T23:09:45.888Z,4.60
2023-03-13T23:12:13.986Z,5.07
2023-03-13T23:14:44.117Z,4.70
2023-03-13T23:17:12.325Z,5.13
2023-03-13T23:19:40.424Z,5.00
2023-03-13T23:22:08.817Z,4.57
2023-03-13T23:24:37.052Z,5.10
2023-03-13T23:27:05.991Z,3.70
2023-03-13T23:29:34.163Z,4.17
2023-03-13T23:32:03.718Z,3.60
2023-03-13T23:34:31.981Z,4.40
2023-03-13T23:37:00.109Z,4.47
2023-03-13T23:39:28.237Z,4.37
2023-03-13T23:41:56.267Z,4.57
2023-03-13T23:44:25.846Z,4.20
2023-03-13T23:46:54.524Z,4.10
2023-03-13T23:49:24.033Z,3.80
2023-03-13T23:51:52.383Z,4.47
2023-03-13T23:54:21.543Z,5.50
2023-03-13T23:56:49.771Z,4.70
2023-03-13T23:59:18.371Z,4.03
